createdAt,value
2018-09-10T00:00:09.669Z,4.03
2018-09-10T00:02:38.070Z,4.03
2018-09-10T00:05:06.430Z,3.63
2018-09-10T00:07:34.786Z,3.90
2018-09-10T00:10:03.845Z,4.37
2018-09-10T00:12:32.145Z,4.30
2018-09-10T00:15:00.441Z,3.53
2018-09-10T00:17:28.705Z,3.83
2018-09-10T00:19:57.023Z,3.40
2018-09-10T00:22:25.341Z,4.20
2018-09-10T00:24:53.635Z,3.37
2018-09-10T00:27:21.921Z,3.17
2018-09-10T00:29:50.569Z,3.60
2018-09-10T00:32:18.846Z,3.30
2018-09-10T00:34:47.145Z,2.83
2018-09-10T00:37:15.423Z,3.70
2018-09-10T00:39:43.802Z,3.50
2018-09-10T00:42:12.121Z,3.60
2018-09-10T00:44:40.451Z,3.10
2018-09-10T00:47:08.737Z,2.80
2018-09-10T00:49:37.030Z,4.30
2018-09-10T00:52:05.337Z,3.93
2018-09-10T00:54:33.654Z,3.60
2018-09-10T00:57:01.992Z,3.37
2018-09-10T00:59:30.290Z,3.07
2018-09-10T01:01:58.637Z,3.57
2018-09-10T01:04:26.938Z,3.40
2018-09-10T01:06:55.277Z,3.53
2018-09-10T01:09:23.566Z,3.97
2018-09-10T01:11:51.865Z,4.10
2018-09-10T01:14:20.178Z,3.37
2018-09-10T01:16:48.464Z,3.20
2018-09-10T01:19:16.818Z,3.83
2018-09-10T01:21:45.119Z,3.80
2018-09-10T01:24:13.481Z,3.80
2018-09-10T01:26:41.777Z,4.17
2018-09-10T01:29:10.145Z,3.57
2018-09-10T01:31:38.442Z,4.00
2018-09-10T01:34:12.063Z,4.20
2018-09-10T01:36:40.517Z,3.57
2018-09-10T01:39:09.628Z,3.80
2018-09-10T01:41:37.913Z,4.08
2018-09-10T01:44:06.274Z,3.67
2018-09-10T01:46:34.550Z,3.73
2018-09-10T01:49:02.842Z,4.40
2018-09-10T01:51:31.330Z,4.03
2018-09-10T01:53:59.935Z,4.47
2018-09-10T01:56:28.481Z,3.40
2018-09-10T01:58:56.795Z,3.40
2018-09-10T02:01:25.076Z,4.03
2018-09-10T02:03:53.548Z,3.80
2018-09-10T02:06:21.877Z,3.63
2018-09-10T02:09:53.589Z,3.90
2018-09-10T02:12:25.932Z,3.70
2018-09-10T02:14:55.661Z,3.83
2018-09-10T02:17:24.439Z,3.77
2018-09-10T02:19:52.786Z,4.07
2018-09-10T02:22:21.592Z,3.90
2018-09-10T02:24:49.898Z,4.50
2018-09-10T02:27:18.280Z,3.73
2018-09-10T02:29:46.566Z,4.13
2018-09-10T02:32:14.841Z,4.27
2018-09-10T02:34:43.175Z,4.57
2018-09-10T02:37:11.457Z,3.90
2018-09-10T02:39:39.823Z,3.87
2018-09-10T02:42:08.100Z,4.40
2018-09-10T02:44:36.402Z,4.40
2018-09-10T02:47:04.680Z,4.50
2018-09-10T02:49:33.018Z,4.10
2018-09-10T02:52:01.293Z,4.93
2018-09-10T02:54:29.577Z,5.00
2018-09-10T02:56:57.880Z,5.10
2018-09-10T02:59:26.148Z,4.70
2018-09-10T03:01:54.542Z,4.33
2018-09-10T03:04:22.848Z,4.83
2018-09-10T03:06:51.779Z,4.70
2018-09-10T03:09:20.086Z,4.17
2018-09-10T03:11:48.426Z,5.07
2018-09-10T03:14:16.965Z,5.20
2018-09-10T03:16:45.257Z,4.17
2018-09-10T03:19:13.650Z,5.03
2018-09-10T03:21:41.949Z,4.80
2018-09-10T03:24:10.274Z,4.57
2018-09-10T03:26:38.612Z,5.30
2018-09-10T03:29:06.878Z,5.07
2018-09-10T03:31:35.183Z,4.90
2018-09-10T03:34:04.457Z,6.60
2018-09-10T03:36:32.777Z,4.47
2018-09-10T03:39:01.049Z,5.60
2018-09-10T03:41:29.345Z,4.70
2018-09-10T03:43:57.625Z,4.80
2018-09-10T03:46:26.133Z,5.43
2018-09-10T03:48:54.399Z,5.27
2018-09-10T03:51:22.661Z,5.20
2018-09-10T03:53:50.965Z,5.20
2018-09-10T03:56:19.321Z,4.77
2018-09-10T03:58:47.621Z,3.97
2018-09-10T04:01:15.888Z,4.60
2018-09-10T04:03:44.213Z,4.67
2018-09-10T04:06:12.544Z,5.23
2018-09-10T04:08:40.879Z,4.60
2018-09-10T04:11:09.360Z,4.83
2018-09-10T04:13:37.674Z,4.60
2018-09-10T04:16:05.957Z,4.50
2018-09-10T04:18:34.374Z,4.93
2018-09-10T04:21:02.673Z,5.30
2018-09-10T04:23:30.966Z,5.27
2018-09-10T04:25:59.273Z,5.30
2018-09-10T04:28:27.561Z,4.47
2018-09-10T04:30:55.897Z,4.70
2018-09-10T04:33:24.289Z,5.57
2018-09-10T04:35:52.648Z,12.03
2018-09-10T04:38:21.013Z,7.97
2018-09-10T04:40:49.310Z,5.40
2018-09-10T04:43:17.825Z,5.57
2018-09-10T04:45:46.144Z,5.03
2018-09-10T04:48:14.446Z,5.87
2018-09-10T04:50:43.715Z,5.13
2018-09-10T04:53:12.085Z,5.97
2018-09-10T04:55:40.645Z,6.33
2018-09-10T04:58:08.982Z,5.23
2018-09-10T05:00:37.256Z,5.70
2018-09-10T05:03:05.566Z,5.97
2018-09-10T05:05:33.893Z,5.53
2018-09-10T05:08:02.185Z,7.40
2018-09-10T05:10:30.493Z,5.70
2018-09-10T05:12:58.771Z,6.77
2018-09-10T05:15:27.246Z,7.30
2018-09-10T05:17:55.525Z,6.37
2018-09-10T05:20:23.901Z,4.97
2018-09-10T05:22:52.189Z,6.67
2018-09-10T05:25:20.510Z,6.17
2018-09-10T05:27:48.773Z,6.00
2018-09-10T05:30:17.101Z,6.13
2018-09-10T05:32:45.409Z,5.90
2018-09-10T05:35:14.729Z,5.73
2018-09-10T05:37:43.041Z,7.20
2018-09-10T05:40:11.757Z,6.30
2018-09-10T05:42:40.280Z,6.70
2018-09-10T05:45:10.712Z,6.07
2018-09-10T05:47:39.526Z,6.50
2018-09-10T05:50:08.133Z,6.63
2018-09-10T05:52:36.454Z,6.07
2018-09-10T05:55:04.870Z,7.40
2018-09-10T05:57:33.409Z,6.50
2018-09-10T06:00:01.696Z,7.30
2018-09-10T06:02:31.001Z,6.10
2018-09-10T06:04:59.295Z,6.37
2018-09-10T06:07:27.725Z,6.30
2018-09-10T06:09:56.072Z,7.20
2018-09-10T06:12:24.373Z,7.97
2018-09-10T06:14:52.925Z,7.60
2018-09-10T06:17:21.262Z,8.83
2018-09-10T06:19:49.574Z,7.53
2018-09-10T06:22:17.915Z,7.00
2018-09-10T06:24:46.195Z,7.13
2018-09-10T06:27:14.488Z,7.77
2018-09-10T06:29:43.859Z,7.13
2018-09-10T06:32:12.157Z,7.50
2018-09-10T06:34:40.431Z,7.30
2018-09-10T06:37:09.871Z,7.90
2018-09-10T06:39:38.162Z,8.70
2018-09-10T06:42:06.515Z,7.50
2018-09-10T06:44:34.782Z,6.43
2018-09-10T06:47:03.052Z,6.80
2018-09-10T06:49:31.465Z,7.20
2018-09-10T06:51:59.737Z,7.40
2018-09-10T06:54:28.245Z,7.70
2018-09-10T06:56:56.539Z,8.07
2018-09-10T06:59:24.971Z,6.63
2018-09-10T07:01:53.237Z,6.90
2018-09-10T07:04:21.560Z,8.47
2018-09-10T07:06:49.837Z,8.40
2018-09-10T07:09:18.478Z,8.10
2018-09-10T07:11:46.804Z,8.17
2018-09-10T07:14:15.084Z,7.23
2018-09-10T07:16:44.442Z,8.10
2018-09-10T07:19:12.733Z,7.87
2018-09-10T07:21:41.035Z,8.80
2018-09-10T07:24:09.353Z,8.50
2018-09-10T07:26:37.647Z,9.70
2018-09-10T07:29:05.999Z,9.30
2018-09-10T07:31:34.290Z,8.40
2018-09-10T07:34:02.626Z,8.53
2018-09-10T07:36:30.934Z,8.60
2018-09-10T07:38:59.280Z,8.73
2018-09-10T07:41:27.574Z,8.73
2018-09-10T07:43:55.942Z,9.47
2018-09-10T07:46:24.178Z,10.27
2018-09-10T07:48:52.616Z,10.07
2018-09-10T07:51:20.885Z,9.50
2018-09-10T07:53:49.185Z,9.07
2018-09-10T07:56:17.525Z,9.57
2018-09-10T07:58:45.809Z,10.27
2018-09-10T08:01:14.118Z,9.37
2018-09-10T08:03:42.425Z,10.70
2018-09-10T08:06:10.738Z,10.37
2018-09-10T08:08:39.046Z,9.70
2018-09-10T08:11:07.385Z,10.90
2018-09-10T08:13:35.706Z,10.73
2018-09-10T08:16:04.014Z,10.20
2018-09-10T08:18:32.431Z,10.73
2018-09-10T08:21:00.733Z,10.80
2018-09-10T08:23:28.992Z,11.40
2018-09-10T08:25:57.313Z,10.90
2018-09-10T08:28:25.647Z,10.90
2018-09-10T08:30:53.941Z,10.23
2018-09-10T08:33:22.229Z,10.77
2018-09-10T08:35:50.525Z,10.97
2018-09-10T08:38:19.020Z,11.03
2018-09-10T08:40:47.298Z,10.60
2018-09-10T08:43:15.598Z,9.63
2018-09-10T08:45:43.949Z,11.73
2018-09-10T08:48:12.260Z,10.60
2018-09-10T08:50:40.681Z,9.57
2018-09-10T08:53:09.161Z,10.70
2018-09-10T08:55:37.581Z,9.70
2018-09-10T08:58:05.846Z,10.77
2018-09-10T09:00:34.218Z,10.30
2018-09-10T09:03:02.461Z,11.20
2018-09-10T09:05:30.789Z,10.37
2018-09-10T09:07:59.122Z,10.23
2018-09-10T09:10:27.353Z,9.77
2018-09-10T09:12:55.633Z,11.43
2018-09-10T09:15:23.979Z,9.90
2018-09-10T09:17:52.269Z,9.50
2018-09-10T09:20:20.633Z,10.30
2018-09-10T09:22:49.199Z,12.63
2018-09-10T09:25:17.836Z,10.80
2018-09-10T09:27:46.298Z,10.90
2018-09-10T09:30:14.624Z,10.27
2018-09-10T09:32:42.867Z,9.63
2018-09-10T09:35:11.170Z,9.70
2018-09-10T09:37:44.602Z,10.73
2018-09-10T09:40:18.261Z,10.33
2018-09-10T09:42:51.710Z,9.70
2018-09-10T09:45:25.270Z,8.57
2018-09-10T09:47:53.629Z,8.50
2018-09-10T09:50:21.949Z,7.90
2018-09-10T09:52:50.400Z,7.53
2018-09-10T09:55:18.727Z,6.87
2018-09-10T09:57:47.132Z,5.87
2018-09-10T10:00:15.437Z,7.13
2018-09-10T10:02:49.097Z,7.20
2018-09-10T10:05:17.439Z,6.00
2018-09-10T10:07:45.758Z,4.70
2018-09-10T10:10:14.080Z,5.67
2018-09-10T10:12:42.449Z,5.90
2018-09-10T10:15:10.721Z,6.30
2018-09-10T10:17:39.106Z,5.20
2018-09-10T10:20:07.400Z,7.57
2018-09-10T10:22:35.685Z,5.73
2018-09-10T10:25:03.962Z,8.47
2018-09-10T10:27:32.268Z,6.83
2018-09-10T10:30:01.054Z,6.43
2018-09-10T10:32:29.341Z,7.97
2018-09-10T10:34:57.620Z,6.97
2018-09-10T10:37:25.960Z,5.73
2018-09-10T10:39:54.245Z,6.27
2018-09-10T10:42:22.568Z,5.67
2018-09-10T10:44:50.846Z,5.03
2018-09-10T10:47:20.204Z,5.73
2018-09-10T10:49:48.478Z,4.50
2018-09-10T10:52:16.874Z,4.43
2018-09-10T10:54:45.154Z,4.00
2018-09-10T10:57:13.479Z,4.40
2018-09-10T10:59:41.738Z,4.90
2018-09-10T11:02:10.104Z,4.43
2018-09-10T11:04:38.523Z,4.30
2018-09-10T11:07:07.236Z,4.10
2018-09-10T11:09:35.554Z,4.10
2018-09-10T11:12:04.856Z,3.90
2018-09-10T11:14:33.169Z,3.13
2018-09-10T11:17:02.433Z,3.23
2018-09-10T11:19:30.842Z,2.40
2018-09-10T11:21:59.107Z,2.67
2018-09-10T11:24:27.409Z,3.00
2018-09-10T11:26:55.695Z,2.70
2018-09-10T11:29:23.997Z,2.83
2018-09-10T11:31:52.275Z,3.43
2018-09-10T11:34:20.674Z,3.57
2018-09-10T11:36:49.077Z,2.60
2018-09-10T11:39:17.383Z,4.07
2018-09-10T11:41:45.663Z,3.07
2018-09-10T11:44:13.971Z,3.43
2018-09-10T11:46:42.338Z,3.20
2018-09-10T11:49:10.577Z,2.67
2018-09-10T11:51:38.911Z,3.53
2018-09-10T11:54:07.182Z,2.33
2018-09-10T11:56:35.781Z,2.93
2018-09-10T11:59:04.060Z,2.03
2018-09-10T12:01:32.377Z,6.63
2018-09-10T12:04:00.685Z,4.77
2018-09-10T12:06:29.088Z,3.17
2018-09-10T12:08:57.369Z,2.70
2018-09-10T12:11:25.717Z,2.23
2018-09-10T12:13:53.921Z,2.57
2018-09-10T12:16:22.201Z,2.40
2018-09-10T12:18:50.460Z,1.97
2018-09-10T12:21:18.849Z,1.40
2018-09-10T12:23:47.169Z,1.80
2018-09-10T12:26:15.615Z,2.53
2018-09-10T12:28:43.898Z,2.00
2018-09-10T12:31:12.381Z,2.37
2018-09-10T12:33:40.665Z,2.07
2018-09-10T12:36:10.279Z,2.00
2018-09-10T12:38:38.573Z,2.53
2018-09-10T12:41:08.210Z,2.37
2018-09-10T12:43:36.529Z,1.90
2018-09-10T12:46:04.835Z,1.80
2018-09-10T12:48:33.149Z,2.67
2018-09-10T12:51:17.733Z,1.97
2018-09-10T12:53:46.029Z,2.03
2018-09-10T12:56:14.297Z,2.10
2018-09-10T12:58:42.649Z,2.07
2018-09-10T13:01:10.938Z,2.60
2018-09-10T13:03:39.406Z,2.27
2018-09-10T13:06:07.681Z,3.63
2018-09-10T13:08:35.986Z,2.83
2018-09-10T13:11:04.294Z,2.47
2018-09-10T13:13:32.597Z,3.63
2018-09-10T13:16:00.870Z,2.80
2018-09-10T13:18:30.471Z,3.00
2018-09-10T13:20:58.750Z,3.07
2018-09-10T13:23:27.056Z,2.50
2018-09-10T13:25:55.327Z,3.10
2018-09-10T13:28:23.825Z,2.63
2018-09-10T13:30:52.117Z,2.20
2018-09-10T13:33:20.431Z,3.00
2018-09-10T13:35:48.714Z,2.13
2018-09-10T13:38:16.966Z,2.63
2018-09-10T13:40:45.268Z,2.90
2018-09-10T13:43:13.632Z,2.47
2018-09-10T13:45:42.101Z,2.90
2018-09-10T13:48:10.717Z,4.60
2018-09-10T13:50:39.020Z,3.27
2018-09-10T13:53:07.577Z,2.90
2018-09-10T13:55:35.937Z,3.07
2018-09-10T13:58:04.233Z,4.17
2018-09-10T14:00:32.635Z,3.60
2018-09-10T14:03:00.893Z,2.73
2018-09-10T14:05:29.225Z,4.40
2018-09-10T14:07:57.506Z,4.80
2018-09-10T14:10:25.825Z,4.33
2018-09-10T14:12:54.121Z,2.60
2018-09-10T14:15:22.433Z,2.20
2018-09-10T14:17:50.697Z,2.23
2018-09-10T14:20:20.060Z,1.80
2018-09-10T14:22:48.365Z,2.70
2018-09-10T14:25:16.713Z,2.67
2018-09-10T14:27:44.985Z,2.27
2018-09-10T14:30:13.309Z,2.00
2018-09-10T14:32:41.643Z,2.17
2018-09-10T14:35:09.985Z,2.07
2018-09-10T14:37:38.289Z,2.63
2018-09-10T14:40:06.735Z,2.40
2018-09-10T14:42:35.046Z,1.93
2018-09-10T14:45:03.336Z,2.10
2018-09-10T14:47:31.634Z,1.80
2018-09-10T14:49:59.928Z,1.97
2018-09-10T14:52:28.345Z,2.30
2018-09-10T14:54:56.609Z,2.17
2018-09-10T14:57:25.001Z,2.50
2018-09-10T14:59:53.340Z,1.60
2018-09-10T15:02:22.728Z,1.97
2018-09-10T15:04:51.129Z,1.57
2018-09-10T15:07:19.452Z,2.10
2018-09-10T15:09:47.740Z,2.23
2018-09-10T15:12:16.125Z,1.90
2018-09-10T15:14:44.962Z,1.80
2018-09-10T15:17:13.276Z,2.57
2018-09-10T15:19:41.565Z,2.33
2018-09-10T15:22:09.841Z,4.20
2018-09-10T15:24:38.177Z,2.10
2018-09-10T15:27:06.478Z,2.27
2018-09-10T15:29:35.861Z,1.40
2018-09-10T15:32:04.153Z,1.93
2018-09-10T15:34:33.259Z,2.13
2018-09-10T15:37:01.584Z,2.10
2018-09-10T15:39:29.889Z,2.30
2018-09-10T15:41:58.165Z,2.40
2018-09-10T15:44:26.501Z,1.60
2018-09-10T15:46:54.901Z,1.80
2018-09-10T15:49:23.206Z,1.63
2018-09-10T15:51:52.005Z,1.70
2018-09-10T15:54:20.301Z,2.10
2018-09-10T15:56:48.610Z,1.93
2018-09-10T15:59:17.981Z,2.37
2018-09-10T16:01:46.290Z,2.07
2018-09-10T16:04:14.615Z,2.23
2018-09-10T16:06:43.926Z,2.37
2018-09-10T16:09:12.232Z,1.80
2018-09-10T16:11:40.502Z,2.13
2018-09-10T16:14:08.816Z,1.37
2018-09-10T16:16:37.122Z,2.83
2018-09-10T16:19:05.431Z,2.20
2018-09-10T16:21:33.783Z,2.10
2018-09-10T16:24:02.049Z,1.67
2018-09-10T16:26:31.445Z,2.50
2018-09-10T16:28:59.735Z,2.03
2018-09-10T16:31:28.036Z,1.70
2018-09-10T16:33:56.429Z,2.60
2018-09-10T16:36:24.740Z,1.83
2018-09-10T16:38:53.006Z,1.77
2018-09-10T16:41:21.309Z,2.73
2018-09-10T16:43:49.590Z,1.77
2018-09-10T16:46:17.890Z,2.77
2018-09-10T16:48:46.402Z,1.50
2018-09-10T16:51:14.709Z,2.03
2018-09-10T16:53:42.982Z,2.53
2018-09-10T16:56:11.354Z,2.45
2018-09-10T16:58:39.718Z,2.30
2018-09-10T17:01:08.038Z,2.60
2018-09-10T17:03:36.298Z,2.43
2018-09-10T17:06:04.641Z,2.57
2018-09-10T17:08:32.910Z,2.20
2018-09-10T17:11:01.213Z,2.30
2018-09-10T17:13:29.493Z,1.90
2018-09-10T17:15:57.805Z,2.50
2018-09-10T17:18:26.087Z,2.00
2018-09-10T17:20:54.393Z,2.13
2018-09-10T17:23:23.741Z,2.47
2018-09-10T17:28:45.113Z,2.70
2018-09-10T17:31:13.571Z,2.70
2018-09-10T17:33:41.901Z,2.50
2018-09-10T17:36:10.201Z,2.10
2018-09-10T17:38:38.504Z,2.60
2018-09-10T17:41:06.801Z,2.90
2018-09-10T17:43:35.102Z,1.97
2018-09-10T17:46:04.579Z,3.20
2018-09-10T17:48:32.845Z,2.10
2018-09-10T17:51:01.779Z,2.33
2018-09-10T17:53:30.160Z,2.43
2018-09-10T17:55:58.432Z,2.00
2018-09-10T17:58:26.739Z,3.00
2018-09-10T18:00:55.111Z,2.47
2018-09-10T18:03:23.452Z,2.63
2018-09-10T18:05:51.737Z,3.87
2018-09-10T18:08:20.045Z,2.90
2018-09-10T18:10:48.471Z,3.57
2018-09-10T18:13:16.891Z,2.67
2018-09-10T18:15:45.341Z,2.87
2018-09-10T18:18:13.934Z,2.53
2018-09-10T18:20:43.505Z,2.90
2018-09-10T18:23:12.072Z,2.73
2018-09-10T18:25:40.975Z,2.57
2018-09-10T18:28:09.644Z,2.57
2018-09-10T18:30:38.358Z,2.80
2018-09-10T18:33:07.441Z,2.43
2018-09-10T18:35:37.168Z,2.77
2018-09-10T18:38:05.941Z,3.07
2018-09-10T18:40:34.521Z,3.10
2018-09-10T18:43:03.188Z,2.07
2018-09-10T18:45:31.765Z,2.70
2018-09-10T18:48:00.310Z,3.10
2018-09-10T18:50:28.931Z,2.87
2018-09-10T18:52:57.422Z,2.90
2018-09-10T18:55:25.973Z,2.77
2018-09-10T18:57:54.439Z,2.35
2018-09-10T19:00:22.914Z,3.00
2018-09-10T19:02:51.213Z,2.77
2018-09-10T19:05:19.532Z,3.20
2018-09-10T19:07:47.889Z,2.60
2018-09-10T19:10:16.215Z,3.13
2018-09-10T19:12:44.489Z,2.17
2018-09-10T19:15:12.785Z,3.27
2018-09-10T19:17:41.045Z,3.90
2018-09-10T19:20:09.574Z,3.40
2018-09-10T19:22:37.931Z,2.80
2018-09-10T19:25:07.855Z,2.87
2018-09-10T19:27:37.189Z,2.73
2018-09-10T19:30:06.170Z,2.70
2018-09-10T19:32:34.534Z,2.17
2018-09-10T19:35:02.794Z,3.13
2018-09-10T19:37:31.089Z,2.43
2018-09-10T19:39:59.346Z,2.90
2018-09-10T19:42:27.686Z,3.60
2018-09-10T19:44:55.950Z,2.87
2018-09-10T19:47:24.325Z,4.27
2018-09-10T19:49:52.600Z,3.70
2018-09-10T19:52:20.897Z,3.03
2018-09-10T19:54:49.161Z,3.17
2018-09-10T19:57:17.462Z,4.03
2018-09-10T19:59:45.733Z,3.20
2018-09-10T20:02:15.017Z,3.43
2018-09-10T20:04:43.318Z,2.83
2018-09-10T20:07:11.604Z,3.53
2018-09-10T20:09:39.932Z,3.50
2018-09-10T20:12:08.163Z,4.03
2018-09-10T20:14:36.449Z,3.77
2018-09-10T20:17:04.788Z,4.00
2018-09-10T20:19:33.065Z,3.40
2018-09-10T20:22:01.391Z,4.23
2018-09-10T20:24:29.635Z,4.03
2018-09-10T20:26:57.928Z,3.03
2018-09-10T20:29:27.362Z,3.23
2018-09-10T20:31:55.664Z,4.40
2018-09-10T20:34:24.088Z,2.73
2018-09-10T20:36:52.480Z,4.47
2018-09-10T20:39:20.754Z,3.50
2018-09-10T20:41:49.008Z,4.60
2018-09-10T20:44:17.282Z,3.87
2018-09-10T20:46:45.537Z,4.30
2018-09-10T20:49:13.821Z,4.10
2018-09-10T20:51:42.108Z,3.83
2018-09-10T20:54:10.411Z,4.37
2018-09-10T20:56:38.662Z,4.80
2018-09-10T20:59:06.909Z,3.17
2018-09-10T21:01:35.198Z,4.47
2018-09-10T21:04:03.492Z,3.67
2018-09-10T21:06:32.237Z,3.80
2018-09-10T21:09:00.489Z,4.00
2018-09-10T21:11:28.781Z,3.60
2018-09-10T21:13:57.052Z,3.90
2018-09-10T21:16:25.334Z,3.43
2018-09-10T21:18:53.578Z,4.33
2018-09-10T21:21:21.837Z,3.20
2018-09-10T21:23:50.122Z,3.67
2018-09-10T21:26:18.398Z,4.77
2018-09-10T21:28:46.665Z,3.83
2018-09-10T21:31:14.962Z,3.20
2018-09-10T21:33:43.281Z,3.07
2018-09-10T21:36:11.553Z,3.17
2018-09-10T21:38:39.845Z,2.63
2018-09-10T21:41:08.373Z,3.00
2018-09-10T21:43:36.750Z,3.50
2018-09-10T21:46:05.233Z,3.77
2018-09-10T21:48:33.476Z,3.93
2018-09-10T21:51:01.743Z,2.93
2018-09-10T21:53:32.422Z,3.40
2018-09-10T21:56:00.688Z,3.20
2018-09-10T21:58:29.012Z,4.00
2018-09-10T22:00:58.188Z,3.57
2018-09-10T22:03:26.796Z,3.60
2018-09-10T22:05:55.529Z,3.23
2018-09-10T22:08:24.371Z,3.80
2018-09-10T22:10:52.929Z,3.73
2018-09-10T22:13:21.229Z,3.80
2018-09-10T22:15:49.488Z,4.00
2018-09-10T22:18:17.805Z,3.10
2018-09-10T22:20:46.103Z,3.37
2018-09-10T22:23:14.377Z,2.87
2018-09-10T22:25:42.669Z,3.47
2018-09-10T22:28:11.069Z,2.53
2018-09-10T22:30:39.329Z,2.60
2018-09-10T22:33:08.112Z,2.80
2018-09-10T22:35:36.392Z,3.90
2018-09-10T22:38:04.689Z,2.43
2018-09-10T22:40:33.092Z,3.50
2018-09-10T22:43:01.365Z,2.60
2018-09-10T22:45:29.682Z,3.40
2018-09-10T22:47:58.005Z,3.07
2018-09-10T22:50:26.545Z,3.37
2018-09-10T22:52:54.798Z,2.60
2018-09-10T22:55:23.091Z,2.70
2018-09-10T22:57:51.350Z,2.37
2018-09-10T23:00:19.781Z,2.70
2018-09-10T23:02:48.090Z,3.10
2018-09-10T23:05:16.409Z,2.67
2018-09-10T23:07:44.666Z,2.03
2018-09-10T23:10:12.945Z,2.23
2018-09-10T23:12:41.209Z,2.93
2018-09-10T23:15:09.793Z,3.70
2018-09-10T23:17:39.117Z,2.23
2018-09-10T23:20:07.766Z,2.10
2018-09-10T23:22:36.065Z,3.17
2018-09-10T23:25:04.382Z,2.80
2018-09-10T23:27:32.748Z,3.00
2018-09-10T23:30:02.321Z,2.90
2018-09-10T23:32:30.572Z,2.80
2018-09-10T23:34:58.845Z,3.60
2018-09-10T23:37:27.097Z,2.90
2018-09-10T23:39:55.400Z,4.40
2018-09-10T23:42:23.658Z,2.80
2018-09-10T23:44:52.019Z,2.70
2018-09-10T23:47:20.264Z,2.90
2018-09-10T23:49:48.765Z,3.10
2018-09-10T23:52:17.036Z,3.43
2018-09-10T23:54:45.294Z,3.47
2018-09-10T23:57:13.592Z,3.27
2018-09-10T23:59:41.833Z,3.00
